createdAt,value
2022-12-11T00:00:53.333Z,101108.50
2022-12-11T00:03:20.405Z,101115.50
2022-12-11T00:05:47.433Z,101109.47
2022-12-11T00:08:14.485Z,101110.31
2022-12-11T00:10:49.523Z,101104.25
2022-12-11T00:13:16.615Z,101105.97
2022-12-11T00:15:43.614Z,101113.75
2022-12-11T00:18:14.130Z,101112.84
2022-12-11T00:20:41.718Z,101109.41
2022-12-11T00:23:08.865Z,101111.16
2022-12-11T00:25:35.836Z,101112.03
2022-12-11T00:28:02.787Z,101103.41
2022-12-11T00:30:29.760Z,101106.91
2022-12-11T00:32:56.723Z,101106.03
2022-12-11T00:35:23.876Z,101106.88
2022-12-11T00:37:52.820Z,101107.72
2022-12-11T00:40:19.767Z,101109.47
2022-12-11T00:42:47.721Z,101110.31
2022-12-11T00:45:14.694Z,101104.28
2022-12-11T00:47:41.750Z,101103.44
2022-12-11T00:50:12.147Z,101101.72
2022-12-11T00:52:40.602Z,101101.72
2022-12-11T00:55:09.164Z,101098.28
2022-12-11T00:57:36.474Z,101091.34
2022-12-11T01:00:07.167Z,101096.50
2022-12-11T01:02:34.729Z,101097.34
2022-12-11T01:05:04.877Z,101093.00
2022-12-11T01:07:31.858Z,101086.06
2022-12-11T01:10:17.630Z,101092.94
2022-12-11T01:12:44.562Z,101079.97
2022-12-11T01:15:12.177Z,101077.38
2022-12-11T01:17:39.376Z,101081.72
2022-12-11T01:20:07.048Z,101082.63
2022-12-11T01:22:34.045Z,101085.25
2022-12-11T01:25:01.016Z,101087.84
2022-12-11T01:27:28.053Z,101086.97
2022-12-11T01:29:54.994Z,101082.69
2022-12-11T01:32:22.231Z,101083.56
2022-12-11T01:34:49.163Z,101093.09
2022-12-11T01:37:16.248Z,101093.94
2022-12-11T01:39:43.179Z,101093.09
2022-12-11T01:42:18.994Z,101095.69
2022-12-11T01:44:45.835Z,101087.06
2022-12-11T01:47:14.756Z,101088.81
2022-12-11T01:49:44.123Z,101085.38
2022-12-11T01:52:21.512Z,101087.13
2022-12-11T01:54:51.316Z,101094.06
2022-12-11T01:57:18.392Z,101091.47
2022-12-11T01:59:47.181Z,101079.41
2022-12-11T02:02:32.294Z,101079.34
2022-12-11T02:05:02.448Z,101085.44
2022-12-11T02:07:38.707Z,101075.91
2022-12-11T02:10:07.260Z,101071.63
2022-12-11T02:12:58.271Z,101074.31
2022-12-11T02:15:44.437Z,101075.19
2022-12-11T02:18:31.253Z,101072.56
2022-12-11T02:21:32.804Z,101068.28
2022-12-11T02:24:27.536Z,101066.50
2022-12-11T02:27:28.904Z,101065.66
2022-12-11T02:30:15.045Z,101062.19
2022-12-11T02:32:48.965Z,101056.97
2022-12-11T02:35:24.907Z,101060.47
2022-12-11T02:38:02.254Z,101063.06
2022-12-11T02:40:35.088Z,101056.16
2022-12-11T02:43:08.010Z,101060.53
2022-12-11T02:45:40.913Z,101056.22
2022-12-11T02:48:11.599Z,101054.47
2022-12-11T02:50:47.214Z,101060.56
2022-12-11T02:53:23.651Z,101052.78
2022-12-11T02:56:01.940Z,101049.34
2022-12-11T02:58:34.221Z,101044.16
2022-12-11T03:01:01.513Z,101045.84
2022-12-11T03:03:30.800Z,101050.22
2022-12-11T03:05:57.923Z,101043.31
2022-12-11T03:08:24.938Z,101033.81
2022-12-11T03:10:51.952Z,101042.47
2022-12-11T03:13:23.766Z,101038.16
2022-12-11T03:16:34.774Z,101027.78
2022-12-11T03:19:27.819Z,101040.72
2022-12-11T03:22:03.494Z,101040.72
2022-12-11T03:25:02.198Z,101039.88
2022-12-11T03:27:48.271Z,101039.03
2022-12-11T03:30:20.315Z,101036.41
2022-12-11T03:32:59.837Z,101033.84
2022-12-11T03:35:37.445Z,101039.88
2022-12-11T03:38:13.852Z,101032.94
2022-12-11T03:40:46.192Z,101026.91
2022-12-11T03:43:16.278Z,101029.50
2022-12-11T03:45:47.388Z,101036.44
2022-12-11T03:48:17.542Z,101037.31
2022-12-11T03:50:47.910Z,101034.72
2022-12-11T03:53:16.260Z,101038.22
2022-12-11T03:55:43.670Z,101034.75
2022-12-11T03:58:10.838Z,101035.66
2022-12-11T04:00:38.507Z,101035.66
2022-12-11T04:03:15.093Z,101044.31
2022-12-11T04:05:49.487Z,101032.19
2022-12-11T04:08:20.679Z,101028.75
2022-12-11T04:11:09.614Z,101023.56
2022-12-11T04:13:38.116Z,101019.25
2022-12-11T04:16:06.096Z,101021.84
2022-12-11T04:18:51.592Z,101021.84
2022-12-11T04:21:39.712Z,101016.66
2022-12-11T04:24:17.037Z,101016.66
2022-12-11T04:26:46.981Z,101015.81
2022-12-11T04:29:15.024Z,101015.78
2022-12-11T04:31:42.139Z,101008.88
2022-12-11T04:34:09.719Z,101011.50
2022-12-11T04:36:36.967Z,101014.13
2022-12-11T04:39:05.973Z,101015.84
2022-12-11T04:41:33.999Z,101011.56
2022-12-11T04:44:01.422Z,101008.06
2022-12-11T04:46:28.473Z,101010.66
2022-12-11T04:48:57.687Z,101009.81
2022-12-11T04:51:26.506Z,101003.78
2022-12-11T04:53:54.362Z,101006.38
2022-12-11T04:56:22.429Z,101010.66
2022-12-11T04:58:49.604Z,101002.03
2022-12-11T05:01:22.402Z,101008.97
2022-12-11T05:03:50.145Z,101005.47
2022-12-11T05:06:17.504Z,101007.22
2022-12-11T05:08:46.631Z,101002.91
2022-12-11T05:11:17.500Z,101010.72
2022-12-11T05:13:45.438Z,101004.69
2022-12-11T05:16:16.629Z,101011.63
2022-12-11T05:18:44.562Z,101009.88
2022-12-11T05:21:14.874Z,101011.63
2022-12-11T05:23:43.302Z,101017.69
2022-12-11T05:26:21.123Z,101002.16
2022-12-11T05:28:54.160Z,101009.03
2022-12-11T05:31:25.772Z,101015.06
2022-12-11T05:33:54.166Z,101003.84
2022-12-11T05:36:31.923Z,101005.53
2022-12-11T05:39:01.118Z,101007.34
2022-12-11T05:41:32.543Z,101005.59
2022-12-11T05:44:00.322Z,100991.78
2022-12-11T05:46:30.572Z,100991.81
2022-12-11T05:49:01.342Z,100993.56
2022-12-11T05:51:29.408Z,100974.50
2022-12-11T05:53:57.922Z,100977.97
2022-12-11T05:56:32.505Z,100984.88
2022-12-11T05:59:01.009Z,100981.38
2022-12-11T06:01:34.242Z,100979.66
2022-12-11T06:04:02.767Z,100978.78
2022-12-11T06:06:29.865Z,100978.78
2022-12-11T06:08:59.670Z,100985.72
2022-12-11T06:11:31.451Z,100982.22
2022-12-11T06:13:59.521Z,100982.22
2022-12-11T06:16:26.556Z,100987.41
2022-12-11T06:18:59.809Z,100991.75
2022-12-11T06:21:31.939Z,100991.75
2022-12-11T06:24:03.535Z,100994.38
2022-12-11T06:26:32.088Z,100996.09
2022-12-11T06:28:59.920Z,100992.63
2022-12-11T06:31:27.240Z,100994.38
2022-12-11T06:33:55.098Z,100991.78
2022-12-11T06:36:24.222Z,100990.94
2022-12-11T06:38:52.922Z,100995.25
2022-12-11T06:41:22.079Z,100996.97
2022-12-11T06:43:49.171Z,100994.41
2022-12-11T06:46:19.336Z,101002.22
2022-12-11T06:48:48.306Z,101003.09
2022-12-11T06:51:22.833Z,100997.03
2022-12-11T06:53:56.391Z,100995.31
2022-12-11T06:56:24.669Z,100994.41
2022-12-11T06:58:52.568Z,100992.66
2022-12-11T07:01:26.647Z,100994.41
2022-12-11T07:03:56.341Z,100990.06
2022-12-11T07:06:25.417Z,100997.03
2022-12-11T07:08:52.972Z,100995.31
2022-12-11T07:11:21.669Z,101000.56
2022-12-11T07:13:49.279Z,100995.38
2022-12-11T07:16:18.016Z,100997.16
2022-12-11T07:18:51.149Z,100998.88
2022-12-11T07:21:20.722Z,101004.97
2022-12-11T07:23:49.238Z,101008.41
2022-12-11T07:26:20.121Z,101012.69
2022-12-11T07:28:47.909Z,101012.69
2022-12-11T07:31:19.364Z,101011.78
2022-12-11T07:33:47.315Z,101017.84
2022-12-11T07:36:16.258Z,101027.38
2022-12-11T07:38:44.374Z,101025.63
2022-12-11T07:41:14.902Z,101027.31
2022-12-11T07:43:43.470Z,101030.75
2022-12-11T07:46:20.797Z,101031.72
2022-12-11T07:48:49.548Z,101030.94
2022-12-11T07:51:27.747Z,101034.47
2022-12-11T07:54:08.494Z,101031.09
2022-12-11T07:56:42.940Z,101033.75
2022-12-11T07:59:11.610Z,101030.28
2022-12-11T08:01:40.439Z,101029.41
2022-12-11T08:04:10.824Z,101022.56
2022-12-11T08:06:40.106Z,101023.41
2022-12-11T08:09:13.631Z,101027.75
2022-12-11T08:11:46.244Z,101033.00
2022-12-11T08:14:13.638Z,101035.59
2022-12-11T08:16:43.109Z,101027.84
2022-12-11T08:19:13.705Z,101018.31
2022-12-11T08:21:42.165Z,101027.84
2022-12-11T08:24:10.234Z,101026.09
2022-12-11T08:26:38.490Z,101015.81
2022-12-11T08:29:05.527Z,101020.16
2022-12-11T08:31:33.593Z,101021.88
2022-12-11T08:34:01.154Z,101020.13
2022-12-11T08:36:28.570Z,101013.16
2022-12-11T08:38:56.681Z,101013.97
2022-12-11T08:41:31.290Z,101014.06
2022-12-11T08:44:00.288Z,101005.47
2022-12-11T08:46:31.275Z,101013.34
2022-12-11T08:48:59.348Z,101018.50
2022-12-11T08:51:29.887Z,101014.16
2022-12-11T08:54:00.980Z,101012.44
2022-12-11T08:56:29.801Z,101003.75
2022-12-11T08:59:01.240Z,101009.84
2022-12-11T09:01:29.223Z,101011.63
2022-12-11T09:03:57.607Z,101015.16
2022-12-11T09:06:29.330Z,101006.50
2022-12-11T09:09:01.238Z,101007.41
2022-12-11T09:11:32.416Z,101009.19
2022-12-11T09:14:06.869Z,101005.72
2022-12-11T09:16:37.781Z,101002.25
2022-12-11T09:19:07.878Z,101003.13
2022-12-11T09:21:35.062Z,101006.63
2022-12-11T09:24:03.511Z,101003.22
2022-12-11T09:26:31.799Z,101004.97
2022-12-11T09:28:59.203Z,100995.44
2022-12-11T09:31:30.954Z,100994.59
2022-12-11T09:34:11.438Z,100994.66
2022-12-11T09:36:41.023Z,100998.16
2022-12-11T09:39:12.255Z,100999.94
2022-12-11T09:41:56.457Z,101001.72
2022-12-11T09:44:37.393Z,100999.13
2022-12-11T09:47:21.103Z,101000.84
2022-12-11T09:49:58.893Z,101004.28
2022-12-11T09:52:37.614Z,100995.59
2022-12-11T09:55:24.330Z,100994.78
2022-12-11T09:58:20.577Z,100991.34
2022-12-11T10:00:56.492Z,100987.06
2022-12-11T10:03:41.455Z,100998.34
2022-12-11T10:06:31.381Z,101002.66
2022-12-11T10:09:43.682Z,100991.38
2022-12-11T10:12:23.148Z,100994.88
2022-12-11T10:15:41.048Z,100987.94
2022-12-11T10:18:18.204Z,100987.06
2022-12-11T10:20:46.082Z,100989.72
2022-12-11T10:23:38.452Z,100988.00
2022-12-11T10:26:18.135Z,100996.63
2022-12-11T10:28:47.379Z,100981.97
2022-12-11T10:31:40.839Z,100986.34
2022-12-11T10:34:31.924Z,100981.13
2022-12-11T10:37:00.674Z,100983.72
2022-12-11T10:39:28.879Z,100982.88
2022-12-11T10:41:57.145Z,100978.56
2022-12-11T10:44:33.234Z,100982.94
2022-12-11T10:47:12.422Z,100972.50
2022-12-11T10:49:51.817Z,100983.84
2022-12-11T10:52:25.098Z,100974.28
2022-12-11T10:55:20.775Z,100970.88
2022-12-11T10:57:59.708Z,100969.97
2022-12-11T11:00:37.654Z,100966.50
2022-12-11T11:03:28.470Z,100968.19
2022-12-11T11:06:17.195Z,100966.38
2022-12-11T11:08:53.602Z,100960.19
2022-12-11T11:11:38.054Z,100966.19
2022-12-11T11:14:17.040Z,100957.44
2022-12-11T11:16:50.472Z,100961.75
2022-12-11T11:19:30.849Z,100966.03
2022-12-11T11:22:01.800Z,100965.16
2022-12-11T11:24:38.855Z,100959.88
2022-12-11T11:27:40.339Z,100957.28
2022-12-11T11:30:36.562Z,100956.38
2022-12-11T11:33:19.440Z,100953.81
2022-12-11T11:36:15.294Z,100945.13
2022-12-11T11:38:58.746Z,100942.53
2022-12-11T11:41:37.647Z,100941.69
2022-12-11T11:46:59.805Z,100942.53
2022-12-11T11:50:24.599Z,100939.97
2022-12-11T11:53:19.268Z,100934.81
2022-12-11T11:56:25.755Z,100933.91
2022-12-11T11:59:15.688Z,100928.72
2022-12-11T12:01:43.870Z,100933.06
2022-12-11T12:04:12.418Z,100935.63
2022-12-11T12:07:23.782Z,100927.84
2022-12-11T12:10:10.009Z,100928.69
2022-12-11T12:13:48.224Z,100933.88
2022-12-11T12:16:52.324Z,100929.53
2022-12-11T12:19:32.698Z,100915.63
2022-12-11T12:22:21.268Z,100923.41
2022-12-11T12:25:26.274Z,100915.63
2022-12-11T12:28:15.854Z,100916.47
2022-12-11T12:31:31.909Z,100920.84
2022-12-11T12:34:15.038Z,100916.44
2022-12-11T12:37:04.002Z,100913.84
2022-12-11T12:40:07.996Z,100913.81
2022-12-11T12:42:43.194Z,100915.56
2022-12-11T12:45:37.036Z,100919.84
2022-12-11T12:48:04.376Z,100920.75
2022-12-11T12:50:44.786Z,100907.75
2022-12-11T12:53:21.718Z,100918.97
2022-12-11T12:55:51.717Z,100916.38
2022-12-11T12:58:46.086Z,100915.47
2022-12-11T13:01:25.480Z,100917.19
2022-12-11T13:04:20.793Z,100913.69
2022-12-11T13:06:55.426Z,100912.81
2022-12-11T13:09:26.833Z,100913.69
2022-12-11T13:12:00.163Z,100912.84
2022-12-11T13:14:31.866Z,100910.25
2022-12-11T13:17:39.137Z,100912.03
2022-12-11T13:20:26.349Z,100912.88
2022-12-11T13:23:40.288Z,100912.88
2022-12-11T13:26:09.538Z,100911.13
2022-12-11T13:28:39.660Z,100908.53
2022-12-11T13:31:15.849Z,100911.16
2022-12-11T13:33:53.503Z,100910.31
2022-12-11T13:36:28.620Z,100911.22
2022-12-11T13:39:02.318Z,100917.25
2022-12-11T13:41:35.225Z,100924.19
2022-12-11T13:44:04.902Z,100920.75
2022-12-11T13:46:38.807Z,100912.91
2022-12-11T13:49:18.624Z,100922.47
2022-12-11T13:51:54.484Z,100920.75
2022-12-11T13:54:21.614Z,100919.84
2022-12-11T13:57:03.737Z,100919.84
2022-12-11T13:59:47.927Z,100925.06
2022-12-11T14:02:39.847Z,100918.97
2022-12-11T14:05:11.248Z,100918.94
2022-12-11T14:07:49.137Z,100923.22
2022-12-11T14:10:25.926Z,100927.56
2022-12-11T14:13:23.205Z,100933.63
2022-12-11T14:15:50.797Z,100921.50
2022-12-11T14:18:25.274Z,100928.44
2022-12-11T14:20:58.889Z,100928.38
2022-12-11T14:23:29.887Z,100928.38
2022-12-11T14:26:19.651Z,100926.66
2022-12-11T14:28:46.820Z,100929.19
2022-12-11T14:31:23.469Z,100927.50
2022-12-11T14:34:26.313Z,100930.94
2022-12-11T14:36:57.162Z,100928.31
2022-12-11T14:39:41.820Z,100935.25
2022-12-11T14:42:25.023Z,100939.56
2022-12-11T14:45:08.663Z,100931.72
2022-12-11T14:47:43.418Z,100934.31
2022-12-11T14:50:26.022Z,100930.81
2022-12-11T14:53:04.426Z,100929.03
2022-12-11T14:55:36.081Z,100940.25
2022-12-11T14:58:08.580Z,100935.06
2022-12-11T15:00:37.885Z,100940.22
2022-12-11T15:03:18.026Z,100936.72
2022-12-11T15:05:55.617Z,100942.75
2022-12-11T15:08:32.021Z,100946.16
2022-12-11T15:11:13.803Z,100947.00
2022-12-11T15:13:57.680Z,100945.25
2022-12-11T15:16:31.542Z,100953.91
2022-12-11T15:18:59.553Z,100946.06
2022-12-11T15:21:34.128Z,100951.25
2022-12-11T15:24:07.070Z,100946.91
2022-12-11T15:26:45.848Z,100952.97
2022-12-11T15:29:36.881Z,100964.22
2022-12-11T15:32:19.998Z,100960.72
2022-12-11T15:34:55.714Z,100958.97
2022-12-11T15:37:28.445Z,100958.94
2022-12-11T15:39:58.485Z,100962.38
2022-12-11T15:42:29.879Z,100966.69
2022-12-11T15:44:58.234Z,100964.94
2022-12-11T15:47:31.526Z,100974.41
2022-12-11T15:50:02.269Z,100971.81
2022-12-11T15:52:29.624Z,100964.91
2022-12-11T15:54:56.629Z,100957.09
2022-12-11T15:57:24.859Z,100964.03
2022-12-11T15:59:54.893Z,100963.16
2022-12-11T16:02:24.226Z,100953.66
2022-12-11T16:04:51.365Z,100957.13
2022-12-11T16:07:24.892Z,100963.16
2022-12-11T16:09:53.613Z,100956.25
2022-12-11T16:12:20.806Z,100961.44
2022-12-11T16:14:47.891Z,100959.72
2022-12-11T16:17:16.266Z,100957.13
2022-12-11T16:19:44.872Z,100951.91
2022-12-11T16:22:14.023Z,100956.22
2022-12-11T16:24:41.969Z,100956.22
2022-12-11T16:27:09.871Z,100942.34
2022-12-11T16:29:41.946Z,100949.28
2022-12-11T16:32:10.030Z,100951.91
2022-12-11T16:34:38.574Z,100946.72
2022-12-11T16:37:07.729Z,100956.25
2022-12-11T16:39:37.903Z,100964.03
2022-12-11T16:42:06.219Z,100956.22
2022-12-11T16:44:33.502Z,100964.88
2022-12-11T16:47:00.635Z,100959.66
2022-12-11T16:49:27.876Z,100951.88
2022-12-11T16:51:54.981Z,100957.03
2022-12-11T16:54:22.642Z,100957.03
2022-12-11T16:56:51.397Z,100957.88
2022-12-11T16:59:18.583Z,100962.16
2022-12-11T17:01:45.790Z,100959.56
2022-12-11T17:04:12.928Z,100962.16
2022-12-11T17:06:39.915Z,100953.47
2022-12-11T17:09:08.125Z,100954.31
2022-12-11T17:11:36.359Z,100952.53
2022-12-11T17:14:03.760Z,100955.13
2022-12-11T17:16:31.402Z,100944.72
2022-12-11T17:18:58.902Z,100955.09
2022-12-11T17:21:26.302Z,100955.03
2022-12-11T17:23:53.445Z,100953.31
2022-12-11T17:26:21.055Z,100955.91
2022-12-11T17:28:50.363Z,100954.19
2022-12-11T17:31:19.566Z,100954.19
2022-12-11T17:33:47.395Z,100959.38
2022-12-11T17:36:22.205Z,100968.91
2022-12-11T17:38:50.064Z,100960.25
2022-12-11T17:41:20.784Z,100959.38
2022-12-11T17:43:53.386Z,100960.28
2022-12-11T17:46:21.689Z,100960.28
2022-12-11T17:48:49.242Z,100957.69
2022-12-11T17:51:23.872Z,100961.19
2022-12-11T17:53:55.641Z,100961.19
2022-12-11T17:56:24.231Z,100962.91
2022-12-11T17:58:53.539Z,100956.00
2022-12-11T18:01:20.863Z,100956.00
2022-12-11T18:03:49.009Z,100962.03
2022-12-11T18:06:16.990Z,100965.50
2022-12-11T18:08:45.946Z,100963.78
2022-12-11T18:11:17.529Z,100967.28
2022-12-11T18:13:45.935Z,100969.84
2022-12-11T18:16:19.100Z,100968.13
2022-12-11T18:18:50.247Z,100971.63
2022-12-11T18:21:25.941Z,100967.25
2022-12-11T18:23:54.576Z,100968.06
2022-12-11T18:26:22.925Z,100963.72
2022-12-11T18:28:51.888Z,100968.06
2022-12-11T18:31:21.745Z,100964.56
2022-12-11T18:33:49.288Z,100962.00
2022-12-11T18:36:18.795Z,100962.88
2022-12-11T18:38:47.914Z,100962.00
2022-12-11T18:41:17.052Z,100970.66
2022-12-11T18:43:45.799Z,100969.78
2022-12-11T18:46:17.102Z,100973.25
2022-12-11T18:48:45.614Z,100968.97
2022-12-11T18:51:23.750Z,100968.09
2022-12-11T18:53:51.925Z,100972.41
2022-12-11T18:56:21.427Z,100967.22
2022-12-11T18:58:50.893Z,100965.47
2022-12-11T19:01:28.787Z,100963.72
2022-12-11T19:04:03.586Z,100968.97
2022-12-11T19:06:35.741Z,100961.13
2022-12-11T19:09:05.092Z,100954.19
2022-12-11T19:11:34.844Z,100949.00
2022-12-11T19:14:03.951Z,100951.56
2022-12-11T19:16:37.991Z,100952.41
2022-12-11T19:19:14.169Z,100949.81
2022-12-11T19:21:42.427Z,100962.78
2022-12-11T19:24:21.342Z,100951.53
2022-12-11T19:26:49.459Z,100954.97
2022-12-11T19:29:32.469Z,100961.06
2022-12-11T19:32:02.833Z,100952.41
2022-12-11T19:34:29.805Z,100955.81
2022-12-11T19:36:57.054Z,100958.41
2022-12-11T19:39:24.195Z,100957.53
2022-12-11T19:41:51.453Z,100961.00
2022-12-11T19:44:18.526Z,100953.19
2022-12-11T19:46:45.835Z,100958.38
2022-12-11T19:49:13.061Z,100961.81
2022-12-11T19:51:42.416Z,100962.63
2022-12-11T19:54:14.687Z,100960.91
2022-12-11T19:56:42.444Z,100960.88
2022-12-11T19:59:13.993Z,100968.66
2022-12-11T20:01:43.023Z,100960.00
2022-12-11T20:04:15.342Z,100963.44
2022-12-11T20:06:45.599Z,100964.28
2022-12-11T20:09:15.641Z,100968.63
2022-12-11T20:11:44.890Z,100969.47
2022-12-11T20:14:25.387Z,100982.47
2022-12-11T20:17:11.848Z,100980.72
2022-12-11T20:19:40.211Z,100983.31
2022-12-11T20:22:07.698Z,100975.53
2022-12-11T20:24:35.894Z,100981.59
2022-12-11T20:27:05.519Z,100976.41
2022-12-11T20:29:32.739Z,100978.97
2022-12-11T20:32:00.394Z,100974.66
2022-12-11T20:34:27.967Z,100970.31
2022-12-11T20:36:56.224Z,100970.28
2022-12-11T20:39:23.367Z,100971.13
2022-12-11T20:41:50.431Z,100969.41
2022-12-11T20:44:17.457Z,100962.47
2022-12-11T20:46:44.512Z,100963.31
2022-12-11T20:49:13.092Z,100971.06
2022-12-11T20:51:41.226Z,100975.38
2022-12-11T20:54:08.538Z,100969.34
2022-12-11T20:56:36.163Z,100973.69
2022-12-11T20:59:03.610Z,100971.94
2022-12-11T21:01:33.090Z,100977.13
2022-12-11T21:04:00.609Z,100978.88
2022-12-11T21:06:35.544Z,100978.03
2022-12-11T21:09:09.161Z,100976.28
2022-12-11T21:11:37.419Z,100972.88
2022-12-11T21:14:06.552Z,100975.50
2022-12-11T21:16:36.605Z,100975.50
2022-12-11T21:19:05.483Z,100966.81
2022-12-11T21:21:36.777Z,100973.78
2022-12-11T21:24:04.232Z,100975.47
2022-12-11T21:26:31.235Z,100979.78
2022-12-11T21:28:58.763Z,100975.47
2022-12-11T21:31:26.038Z,100972.00
2022-12-11T21:33:53.502Z,100978.06
2022-12-11T21:36:20.571Z,100973.72
2022-12-11T21:38:47.757Z,100970.28
2022-12-11T21:41:19.307Z,100972.00
2022-12-11T21:46:36.193Z,100972.88
2022-12-11T21:49:03.565Z,100963.38
2022-12-11T21:51:38.568Z,100967.72
2022-12-11T21:54:10.239Z,100972.06
2022-12-11T21:56:37.387Z,100974.66
2022-12-11T21:59:05.112Z,100980.69
2022-12-11T22:01:41.003Z,100986.75
2022-12-11T22:04:11.086Z,100992.84
2022-12-11T22:06:43.337Z,100992.88
2022-12-11T22:09:12.423Z,100992.00
2022-12-11T22:11:42.078Z,100989.41
2022-12-11T22:14:14.252Z,100991.16
2022-12-11T22:16:42.736Z,100985.09
2022-12-11T22:19:10.041Z,100990.28
2022-12-11T22:21:37.139Z,100995.44
2022-12-11T22:24:07.287Z,100994.59
2022-12-11T22:26:34.345Z,100995.44
2022-12-11T22:29:01.399Z,100996.31
2022-12-11T22:31:28.634Z,100996.34
2022-12-11T22:33:56.317Z,100996.31
2022-12-11T22:36:26.562Z,100996.31
2022-12-11T22:38:54.435Z,100998.91
2022-12-11T22:41:29.244Z,101004.13
2022-12-11T22:43:58.331Z,100997.19
2022-12-11T22:46:29.782Z,100995.44
2022-12-11T22:48:58.819Z,100994.53
2022-12-11T22:51:26.217Z,100992.81
2022-12-11T22:53:53.343Z,100996.31
2022-12-11T22:56:21.011Z,100998.03
2022-12-11T22:58:48.189Z,101002.38
2022-12-11T23:01:21.835Z,100991.13
2022-12-11T23:03:49.226Z,100988.50
2022-12-11T23:06:24.847Z,101002.41
2022-12-11T23:08:59.466Z,100994.59
2022-12-11T23:11:34.792Z,101003.28
2022-12-11T23:14:03.949Z,101002.44
2022-12-11T23:16:31.692Z,100994.63
2022-12-11T23:18:59.740Z,101002.47
2022-12-11T23:21:28.497Z,100995.56
2022-12-11T23:23:57.033Z,100999.03
2022-12-11T23:26:27.276Z,101004.22
2022-12-11T23:28:57.128Z,100998.16
2022-12-11T23:31:26.253Z,101001.63
2022-12-11T23:33:54.108Z,100996.41
2022-12-11T23:36:21.645Z,100999.00
2022-12-11T23:38:54.342Z,100997.25
2022-12-11T23:41:22.658Z,101000.69
2022-12-11T23:43:49.711Z,101003.28
2022-12-11T23:46:22.426Z,101001.56
2022-12-11T23:48:50.283Z,100999.81
2022-12-11T23:51:20.693Z,101008.47
2022-12-11T23:53:47.939Z,101005.88
2022-12-11T23:56:26.112Z,101000.69
2022-12-11T23:58:55.072Z,101009.34
